Time;durP1;ratioP1;P1;durP2;ratioP2;P2;SDS_P1;SDS_P2;PMS_P1;PMS_P2;Temp;Humidity;BMP_temperature;BMP_pressure;BME280_temperature;BME280_humidity;BME280_pressure;Samples;Min_cycle;Max_cycle;Signal;HPM_P1;HPM_P2
2023/12/30 00:01:54;;;;;;;0.50;0.50;;;11.20;99.90;;;;;;7392266;19;20158;-73
2023/12/30 00:04:19;;;;;;;0.93;0.73;;;11.20;99.90;;;;;;7389751;19;20527;-74
2023/12/30 00:06:45;;;;;;;0.60;0.50;;;11.20;99.90;;;;;;7392377;19;20154;-72
2023/12/30 00:09:11;;;;;;;0.50;0.50;;;11.20;99.90;;;;;;7393704;19;20443;-73
2023/12/30 00:11:36;;;;;;;1.38;0.68;;;11.20;99.90;;;;;;7391989;19;20130;-72
2023/12/30 00:14:02;;;;;;;0.50;0.50;;;11.10;99.90;;;;;;7394263;19;20131;-73
2023/12/30 00:16:29;;;;;;;0.93;0.63;;;11.00;99.90;;;;;;7393743;19;20127;-72
2023/12/30 00:18:55;;;;;;;0.50;0.50;;;11.00;99.90;;;;;;7393420;19;20131;-73
2023/12/30 00:21:21;;;;;;;0.57;0.57;;;11.10;99.90;;;;;;7392574;19;20463;-73
2023/12/30 00:23:47;;;;;;;0.52;0.52;;;11.10;99.90;;;;;;7392011;19;20131;-73
2023/12/30 00:26:24;;;;;;;0.85;0.85;;;11.20;99.90;;;;;;7392872;19;20126;-73
2023/12/30 00:28:50;;;;;;;0.83;0.60;;;11.30;99.90;;;;;;7390767;19;20138;-73
2023/12/30 00:31:27;;;;;;;0.40;0.40;;;11.20;99.90;;;;;;7392130;19;20198;-73
2023/12/30 00:33:58;;;;;;;4.07;2.10;;;11.20;99.90;;;;;;7391012;19;20154;-73
2023/12/30 00:36:28;;;;;;;2.65;1.63;;;11.30;99.90;;;;;;7393905;19;20151;-74
2023/12/30 00:38:56;;;;;;;4.00;1.53;;;11.40;99.90;;;;;;7391224;19;20135;-74
2023/12/30 00:41:23;;;;;;;4.00;1.73;;;11.50;99.90;;;;;;7394772;19;20202;-73
2023/12/30 00:43:49;;;;;;;2.33;0.93;;;11.50;99.90;;;;;;7392171;19;20459;-73
2023/12/30 00:46:17;;;;;;;0.75;0.73;;;11.50;99.90;;;;;;7392712;19;20182;-74
2023/12/30 00:48:42;;;;;;;1.02;0.93;;;11.50;99.90;;;;;;7392734;19;20139;-74
2023/12/30 00:51:08;;;;;;;1.45;1.20;;;11.50;99.90;;;;;;7391233;19;20146;-73
2023/12/30 00:53:34;;;;;;;0.63;0.63;;;11.30;99.90;;;;;;7391273;19;20170;-73
2023/12/30 00:55:59;;;;;;;0.60;0.60;;;11.40;99.90;;;;;;7391613;19;20483;-73
2023/12/30 00:58:25;;;;;;;1.53;0.90;;;11.50;99.90;;;;;;7390299;19;20184;-73
2023/12/30 01:00:51;;;;;;;0.55;0.55;;;11.60;99.90;;;;;;7391297;19;20142;-73
2023/12/30 01:03:18;;;;;;;2.83;1.47;;;11.50;99.90;;;;;;7391299;19;20154;-72
2023/12/30 01:05:44;;;;;;;1.10;0.52;;;11.50;99.90;;;;;;7392171;19;20159;-73
2023/12/30 01:08:10;;;;;;;0.70;0.70;;;11.50;99.90;;;;;;7390565;19;20156;-73
2023/12/30 01:10:36;;;;;;;1.20;0.67;;;11.40;99.90;;;;;;7392177;19;20135;-73
2023/12/30 01:13:05;;;;;;;1.17;0.70;;;11.40;99.90;;;;;;7388940;19;20182;-73
2023/12/30 01:15:31;;;;;;;0.90;0.77;;;11.50;99.90;;;;;;7392629;19;20131;-72
2023/12/30 01:17:57;;;;;;;0.88;0.77;;;11.60;99.90;;;;;;7390899;19;20906;-72
2023/12/30 01:20:23;;;;;;;0.52;0.50;;;11.70;99.90;;;;;;7390205;19;20194;-72
2023/12/30 01:22:48;;;;;;;0.88;0.85;;;11.60;99.90;;;;;;7390281;19;20635;-73
2023/12/30 01:25:14;;;;;;;3.15;1.55;;;11.70;99.90;;;;;;7391323;19;20174;-74
2023/12/30 01:27:40;;;;;;;1.20;1.00;;;11.70;99.90;;;;;;7389879;19;20164;-73
2023/12/30 01:30:07;;;;;;;0.55;0.50;;;11.60;99.90;;;;;;7389227;19;20210;-73
2023/12/30 01:32:32;;;;;;;1.33;1.13;;;11.50;99.90;;;;;;7390763;19;20142;-74
2023/12/30 01:34:58;;;;;;;1.02;0.77;;;11.60;99.90;;;;;;7391803;19;20145;-73
2023/12/30 01:37:24;;;;;;;0.50;0.50;;;11.70;99.90;;;;;;7390805;19;20137;-74
2023/12/30 01:39:49;;;;;;;2.23;0.93;;;11.60;99.90;;;;;;7390854;19;20592;-74
2023/12/30 01:42:15;;;;;;;0.82;0.80;;;11.60;99.90;;;;;;7390642;19;20149;-74
2023/12/30 01:44:41;;;;;;;1.10;0.90;;;11.60;99.90;;;;;;7389644;19;20163;-73
2023/12/30 01:47:07;;;;;;;1.48;0.90;;;11.60;99.90;;;;;;7390115;19;20134;-74
2023/12/30 01:49:33;;;;;;;0.50;0.50;;;11.50;99.90;;;;;;7390401;19;20483;-74
2023/12/30 01:51:59;;;;;;;1.75;1.23;;;11.30;99.90;;;;;;7390263;19;20906;-74
2023/12/30 01:54:26;;;;;;;1.10;0.90;;;11.50;99.90;;;;;;7390556;19;20146;-73
2023/12/30 01:56:51;;;;;;;0.63;0.63;;;11.30;99.90;;;;;;7389247;19;20210;-73
2023/12/30 01:59:18;;;;;;;0.55;0.55;;;11.30;99.90;;;;;;7390255;19;20794;-74
2023/12/30 02:01:45;;;;;;;0.83;0.80;;;11.30;99.90;;;;;;7391797;19;20522;-74
2023/12/30 02:04:14;;;;;;;1.30;0.73;;;11.50;99.90;;;;;;7388065;19;20607;-75
2023/12/30 02:06:40;;;;;;;1.53;0.90;;;11.50;99.90;;;;;;7389655;19;20138;-72
2023/12/30 02:09:06;;;;;;;1.10;0.82;;;11.50;99.90;;;;;;7390837;19;20174;-74
2023/12/30 02:11:32;;;;;;;1.35;0.90;;;11.50;99.90;;;;;;7389259;19;20149;-74
2023/12/30 02:13:58;;;;;;;2.08;1.30;;;11.50;99.90;;;;;;7389344;19;20139;-74
2023/12/30 02:16:24;;;;;;;1.20;1.10;;;11.50;99.90;;;;;;7388495;19;20618;-75
2023/12/30 02:18:49;;;;;;;0.50;0.50;;;11.50;99.90;;;;;;7389114;19;20169;-74
2023/12/30 02:21:15;;;;;;;1.03;0.77;;;11.60;99.90;;;;;;7388876;19;20584;-74
2023/12/30 02:23:41;;;;;;;1.73;0.80;;;11.60;99.90;;;;;;7386020;19;20131;-74
2023/12/30 02:26:10;;;;;;;1.57;1.33;;;11.50;99.90;;;;;;7386538;19;20622;-74
2023/12/30 02:28:36;;;;;;;0.40;0.40;;;11.50;99.90;;;;;;7387910;19;20575;-73
2023/12/30 02:31:03;;;;;;;5.30;0.83;;;11.40;99.90;;;;;;7386825;19;20144;-73
2023/12/30 02:33:29;;;;;;;1.40;0.70;;;11.40;99.90;;;;;;7388867;19;20218;-73
2023/12/30 02:35:55;;;;;;;0.75;0.65;;;11.40;99.90;;;;;;7387668;19;20206;-73
2023/12/30 02:38:20;;;;;;;1.02;0.75;;;11.50;99.90;;;;;;7390657;19;20229;-72
2023/12/30 02:40:49;;;;;;;1.53;0.80;;;11.50;99.90;;;;;;7382275;19;20575;-74
2023/12/30 02:43:15;;;;;;;1.27;0.80;;;11.60;99.90;;;;;;7387899;19;20168;-73
2023/12/30 02:45:40;;;;;;;2.80;1.13;;;11.40;99.90;;;;;;7389082;19;20147;-72
2023/12/30 02:48:06;;;;;;;1.20;0.77;;;11.40;99.90;;;;;;7388093;19;20156;-73
2023/12/30 02:50:32;;;;;;;1.10;0.60;;;11.40;99.90;;;;;;7388884;19;20142;-72
2023/12/30 02:52:58;;;;;;;1.50;0.97;;;11.40;99.90;;;;;;7387507;19;20209;-74
2023/12/30 02:55:23;;;;;;;0.60;0.60;;;11.50;99.90;;;;;;7388147;19;20146;-72
2023/12/30 02:57:49;;;;;;;1.42;0.90;;;11.40;99.90;;;;;;7388005;19;20623;-73
2023/12/30 03:00:16;;;;;;;0.88;0.80;;;11.40;99.90;;;;;;7389790;19;20149;-73
2023/12/30 03:02:41;;;;;;;1.40;0.90;;;11.40;99.90;;;;;;7388351;19;20149;-73
2023/12/30 03:05:08;;;;;;;0.60;0.60;;;11.40;99.90;;;;;;7387780;19;20174;-73
2023/12/30 03:07:36;;;;;;;1.20;0.80;;;11.40;99.90;;;;;;7389669;19;20123;-73
2023/12/30 03:10:06;;;;;;;0.70;0.60;;;11.30;99.90;;;;;;7389717;19;20600;-74
2023/12/30 03:12:32;;;;;;;0.90;0.67;;;11.30;99.90;;;;;;7388655;19;20130;-72
2023/12/30 03:14:57;;;;;;;1.53;1.00;;;11.20;99.90;;;;;;7388770;19;20150;-74
2023/12/30 03:17:23;;;;;;;0.50;0.50;;;11.20;99.90;;;;;;7387425;19;20510;-73
2023/12/30 03:19:49;;;;;;;1.23;0.83;;;11.10;99.90;;;;;;7386409;19;20694;-75
2023/12/30 03:22:14;;;;;;;1.63;0.80;;;11.20;99.90;;;;;;7386563;19;20509;-73
2023/12/30 03:24:40;;;;;;;0.60;0.60;;;11.20;99.90;;;;;;7385430;19;20149;-73
2023/12/30 03:27:06;;;;;;;1.83;0.77;;;11.20;99.90;;;;;;7386432;19;20464;-74
2023/12/30 03:29:32;;;;;;;0.97;0.87;;;11.20;99.90;;;;;;7386059;19;20122;-73
2023/12/30 03:31:57;;;;;;;1.07;0.80;;;11.20;99.90;;;;;;7386123;19;20257;-72
2023/12/30 03:34:23;;;;;;;1.00;0.90;;;11.20;99.90;;;;;;7391157;19;20533;-72
2023/12/30 03:36:49;;;;;;;0.70;0.60;;;11.30;99.90;;;;;;7394909;19;20130;-73
2023/12/30 03:39:15;;;;;;;1.60;1.17;;;11.10;99.90;;;;;;7396168;19;20150;-74
2023/12/30 03:41:40;;;;;;;0.67;0.50;;;11.10;99.90;;;;;;7393859;19;20161;-75
2023/12/30 03:44:06;;;;;;;0.77;0.50;;;11.10;99.90;;;;;;7393858;19;20139;-74
2023/12/30 03:46:32;;;;;;;1.07;0.97;;;11.10;99.90;;;;;;7393125;19;20134;-74
2023/12/30 03:48:57;;;;;;;0.60;0.50;;;11.20;99.90;;;;;;7396736;19;20135;-73
2023/12/30 03:51:23;;;;;;;0.68;0.68;;;11.20;99.90;;;;;;7392918;19;20593;-73
2023/12/30 03:53:50;;;;;;;0.63;0.63;;;11.20;99.90;;;;;;7392601;19;20154;-73
2023/12/30 03:56:16;;;;;;;0.57;0.50;;;11.20;99.90;;;;;;7388646;19;20161;-73
2023/12/30 03:58:42;;;;;;;0.82;0.55;;;11.10;99.90;;;;;;7394699;19;20930;-73
2023/12/30 04:01:07;;;;;;;1.97;1.00;;;11.20;99.90;;;;;;7393722;19;20164;-74
2023/12/30 04:03:33;;;;;;;0.50;0.50;;;11.30;99.90;;;;;;7394511;19;20154;-74
2023/12/30 04:05:59;;;;;;;0.50;0.50;;;11.30;99.90;;;;;;7392719;19;20165;-74
2023/12/30 04:08:24;;;;;;;0.67;0.67;;;11.30;99.90;;;;;;7395811;19;20142;-75
2023/12/30 04:10:50;;;;;;;0.80;0.80;;;11.20;99.90;;;;;;7393478;19;20146;-73
2023/12/30 04:13:16;;;;;;;0.50;0.43;;;11.20;99.90;;;;;;7394460;19;20134;-74
2023/12/30 04:15:42;;;;;;;1.57;1.20;;;11.10;99.90;;;;;;7391336;19;20133;-73
2023/12/30 04:18:08;;;;;;;0.57;0.50;;;11.10;99.90;;;;;;7393217;19;20126;-74
2023/12/30 04:20:33;;;;;;;0.73;0.70;;;11.00;99.90;;;;;;7393168;19;20257;-73
2023/12/30 04:22:59;;;;;;;0.80;0.80;;;11.00;99.90;;;;;;7395550;19;20135;-73
2023/12/30 04:25:25;;;;;;;0.50;0.50;;;11.10;99.90;;;;;;7392510;19;20894;-73
2023/12/30 04:27:50;;;;;;;0.87;0.50;;;11.10;99.90;;;;;;7394713;19;20135;-74
2023/12/30 04:30:16;;;;;;;0.53;0.50;;;11.00;99.90;;;;;;7392904;19;20147;-73
2023/12/30 04:32:42;;;;;;;0.30;0.30;;;11.00;99.90;;;;;;7393644;19;20487;-74
2023/12/30 04:35:08;;;;;;;3.43;0.93;;;11.10;99.90;;;;;;7392890;19;20156;-74
2023/12/30 04:37:33;;;;;;;0.63;0.63;;;11.00;99.90;;;;;;7393451;19;20135;-74
2023/12/30 04:39:59;;;;;;;0.93;0.50;;;11.10;99.90;;;;;;7392215;19;20162;-74
2023/12/30 04:42:25;;;;;;;2.23;0.40;;;11.10;99.90;;;;;;7392952;19;20646;-72
2023/12/30 04:44:51;;;;;;;0.37;0.37;;;11.10;99.90;;;;;;7391384;19;20138;-73
2023/12/30 04:47:16;;;;;;;0.50;0.50;;;11.00;99.90;;;;;;7392197;19;20145;-73
2023/12/30 04:49:42;;;;;;;0.50;0.50;;;11.00;99.90;;;;;;7393282;19;20249;-73
2023/12/30 04:52:08;;;;;;;1.55;0.70;;;11.00;99.90;;;;;;7391832;19;20164;-72
2023/12/30 04:54:33;;;;;;;0.63;0.53;;;11.10;99.90;;;;;;7393196;19;20134;-74
2023/12/30 04:56:59;;;;;;;0.73;0.60;;;11.10;99.90;;;;;;7394212;19;20139;-73
2023/12/30 04:59:26;;;;;;;0.30;0.30;;;11.10;99.90;;;;;;7392085;19;20611;-73
2023/12/30 05:01:52;;;;;;;2.00;0.70;;;11.10;99.90;;;;;;7392644;19;20154;-73
2023/12/30 05:04:18;;;;;;;0.70;0.70;;;11.10;99.90;;;;;;7389464;19;20647;-74
2023/12/30 05:06:44;;;;;;;0.40;0.40;;;11.10;99.90;;;;;;7393247;19;20197;-74
2023/12/30 05:09:14;;;;;;;0.40;0.40;;;11.10;99.90;;;;;;7391477;19;20140;-73
2023/12/30 05:11:43;;;;;;;0.85;0.60;;;11.10;99.90;;;;;;7391046;19;20154;-73
2023/12/30 05:14:09;;;;;;;0.30;0.30;;;11.10;99.90;;;;;;7390821;19;20159;-73
2023/12/30 05:16:44;;;;;;;0.67;0.50;;;11.10;99.90;;;;;;7391795;19;20165;-73
2023/12/30 05:19:10;;;;;;;0.47;0.37;;;11.10;99.90;;;;;;7391129;19;20160;-74
2023/12/30 05:21:36;;;;;;;1.07;0.90;;;11.10;99.90;;;;;;7392386;19;20134;-74
2023/12/30 05:24:02;;;;;;;0.30;0.30;;;11.10;99.90;;;;;;7389947;19;20134;-74
2023/12/30 05:26:28;;;;;;;1.30;0.83;;;11.10;99.90;;;;;;7392472;19;20548;-73
2023/12/30 05:28:55;;;;;;;0.83;0.60;;;11.10;99.90;;;;;;7392508;19;20139;-73
2023/12/30 05:31:21;;;;;;;0.40;0.40;;;11.00;99.90;;;;;;7390726;19;20135;-73
2023/12/30 05:33:47;;;;;;;1.00;0.60;;;11.00;99.90;;;;;;7393641;19;20142;-73
2023/12/30 05:36:12;;;;;;;0.67;0.63;;;11.00;99.90;;;;;;7391028;19;20146;-72
2023/12/30 05:38:38;;;;;;;0.77;0.60;;;11.00;99.90;;;;;;7390293;19;20523;-72
2023/12/30 05:41:04;;;;;;;0.30;0.30;;;11.00;99.90;;;;;;7390952;19;20870;-74
2023/12/30 05:43:29;;;;;;;0.30;0.30;;;11.10;99.90;;;;;;7389626;19;20155;-73
2023/12/30 05:45:55;;;;;;;0.20;0.20;;;11.00;99.90;;;;;;7391694;19;20145;-74
2023/12/30 05:48:21;;;;;;;0.60;0.60;;;11.00;99.90;;;;;;7389225;19;20148;-74
2023/12/30 05:50:47;;;;;;;0.28;0.28;;;11.00;99.90;;;;;;7390803;19;20210;-73
2023/12/30 05:53:12;;;;;;;0.30;0.30;;;10.90;99.90;;;;;;7390674;19;20118;-73
2023/12/30 05:55:38;;;;;;;0.40;0.40;;;11.00;99.90;;;;;;7392124;19;20130;-74
2023/12/30 05:58:04;;;;;;;0.40;0.40;;;11.00;99.90;;;;;;7387962;19;20142;-74
2023/12/30 06:00:30;;;;;;;0.50;0.40;;;10.80;99.90;;;;;;7389458;19;20647;-74
2023/12/30 06:02:55;;;;;;;0.30;0.30;;;10.80;99.90;;;;;;7389677;19;20657;-74
2023/12/30 06:05:21;;;;;;;0.47;0.40;;;10.50;99.90;;;;;;7388706;19;20154;-73
2023/12/30 06:07:47;;;;;;;2.10;0.50;;;10.60;99.90;;;;;;7390984;19;20134;-72
2023/12/30 06:10:13;;;;;;;0.30;0.30;;;10.60;99.90;;;;;;7389360;19;20131;-74
2023/12/30 06:12:38;;;;;;;0.32;0.30;;;10.50;99.90;;;;;;7391075;19;20178;-73
2023/12/30 06:15:04;;;;;;;0.25;0.25;;;10.50;99.90;;;;;;7388152;19;20138;-73
2023/12/30 06:17:30;;;;;;;0.30;0.30;;;10.70;99.90;;;;;;7388379;19;20502;-72
2023/12/30 06:19:56;;;;;;;0.40;0.40;;;10.90;99.90;;;;;;7389659;19;20158;-72
2023/12/30 06:22:22;;;;;;;0.30;0.30;;;10.80;99.90;;;;;;7390668;19;20146;-73
2023/12/30 06:24:47;;;;;;;0.68;0.40;;;10.80;99.90;;;;;;7389295;19;20138;-74
2023/12/30 06:27:13;;;;;;;1.53;0.60;;;10.90;99.90;;;;;;7389154;19;20398;-73
2023/12/30 06:29:39;;;;;;;0.30;0.30;;;11.00;99.90;;;;;;7388835;19;20157;-74
2023/12/30 06:32:06;;;;;;;0.30;0.30;;;11.00;99.90;;;;;;7390706;19;20138;-73
2023/12/30 06:34:32;;;;;;;0.40;0.40;;;10.90;99.90;;;;;;7390602;19;20162;-72
2023/12/30 06:36:58;;;;;;;0.30;0.30;;;10.90;99.90;;;;;;7387790;19;20772;-75
2023/12/30 06:39:24;;;;;;;0.40;0.40;;;10.90;99.90;;;;;;7389602;19;20139;-74
2023/12/30 06:41:51;;;;;;;0.30;0.30;;;11.10;99.90;;;;;;7391594;19;20130;-74
2023/12/30 06:44:17;;;;;;;0.37;0.37;;;11.10;99.90;;;;;;7388061;19;20141;-74
2023/12/30 06:46:42;;;;;;;0.33;0.33;;;11.10;99.90;;;;;;7388781;19;20142;-74
2023/12/30 06:49:08;;;;;;;0.27;0.20;;;11.10;99.90;;;;;;7391351;19;20147;-73
2023/12/30 06:51:34;;;;;;;0.20;0.20;;;11.10;99.90;;;;;;7389876;19;20122;-73
2023/12/30 06:54:00;;;;;;;0.30;0.30;;;11.00;99.90;;;;;;7390137;19;20138;-72
2023/12/30 06:56:25;;;;;;;0.40;0.40;;;11.00;99.90;;;;;;7387923;19;20141;-73
2023/12/30 06:58:51;;;;;;;0.40;0.40;;;11.00;99.90;;;;;;7387672;19;20218;-72
2023/12/30 07:01:20;;;;;;;0.40;0.33;;;11.00;99.90;;;;;;7388636;19;20554;-72
2023/12/30 07:03:45;;;;;;;0.37;0.37;;;11.10;99.90;;;;;;7388126;19;20179;-72
2023/12/30 07:06:11;;;;;;;0.20;0.20;;;11.10;99.90;;;;;;7386297;19;20510;-72
2023/12/30 07:08:37;;;;;;;0.30;0.30;;;11.20;99.90;;;;;;7390478;19;20514;-74
2023/12/30 07:11:03;;;;;;;0.20;0.20;;;11.10;99.90;;;;;;7396072;19;20639;-74
2023/12/30 07:13:28;;;;;;;1.90;0.60;;;11.20;99.90;;;;;;7395293;19;20154;-74
2023/12/30 07:15:54;;;;;;;0.40;0.40;;;11.20;99.90;;;;;;7397281;19;20134;-72
2023/12/30 07:18:20;;;;;;;0.50;0.30;;;11.10;99.90;;;;;;7394826;19;20952;-73
2023/12/30 07:20:45;;;;;;;0.30;0.30;;;11.20;99.90;;;;;;7396822;19;20504;-74
2023/12/30 07:23:11;;;;;;;0.40;0.40;;;11.10;99.90;;;;;;7395821;19;20159;-74
2023/12/30 07:25:37;;;;;;;0.23;0.23;;;11.10;99.90;;;;;;7395135;19;20146;-74
2023/12/30 07:28:03;;;;;;;0.30;0.30;;;11.00;99.90;;;;;;7393953;19;20254;-75
2023/12/30 07:30:29;;;;;;;0.30;0.30;;;11.00;99.90;;;;;;7394995;19;20142;-73
2023/12/30 07:32:55;;;;;;;0.30;0.30;;;11.00;99.90;;;;;;7395334;19;20154;-74
2023/12/30 07:35:22;;;;;;;0.30;0.30;;;11.00;99.90;;;;;;7394818;19;20135;-73
2023/12/30 07:37:48;;;;;;;0.67;0.40;;;11.20;99.90;;;;;;7396720;19;20148;-73
2023/12/30 07:40:14;;;;;;;1.43;0.80;;;11.10;99.90;;;;;;7393268;19;20135;-74
2023/12/30 07:42:40;;;;;;;0.30;0.30;;;11.10;99.90;;;;;;7395875;19;20142;-73
2023/12/30 07:45:09;;;;;;;0.40;0.40;;;11.10;99.90;;;;;;7391462;19;20500;-76
2023/12/30 07:47:35;;;;;;;0.50;0.43;;;11.10;99.90;;;;;;7394027;19;20142;-74
2023/12/30 07:50:00;;;;;;;0.70;0.70;;;11.10;99.90;;;;;;7395310;19;20135;-74
2023/12/30 07:52:26;;;;;;;0.90;0.83;;;11.10;99.90;;;;;;7396235;19;20471;-74
2023/12/30 07:54:52;;;;;;;0.73;0.50;;;11.10;99.90;;;;;;7397123;19;20220;-73
2023/12/30 07:57:18;;;;;;;0.73;0.73;;;11.00;99.90;;;;;;7393529;19;20485;-76
2023/12/30 07:59:44;;;;;;;1.00;0.80;;;11.00;99.90;;;;;;7393710;19;20182;-73
2023/12/30 08:02:10;;;;;;;0.37;0.37;;;10.90;99.90;;;;;;7393887;19;20131;-74
2023/12/30 08:04:36;;;;;;;0.67;0.43;;;11.10;99.90;;;;;;7391604;19;20180;-73
2023/12/30 08:07:01;;;;;;;0.30;0.30;;;11.20;99.90;;;;;;7393813;19;20164;-71
2023/12/30 08:09:27;;;;;;;0.43;0.43;;;11.10;99.90;;;;;;7395050;19;20161;-73
2023/12/30 08:11:53;;;;;;;0.50;0.40;;;11.20;99.90;;;;;;7393378;19;20587;-71
2023/12/30 08:14:19;;;;;;;0.33;0.33;;;11.20;99.90;;;;;;7393726;19;20138;-73
2023/12/30 08:16:44;;;;;;;0.52;0.47;;;11.30;99.90;;;;;;7392358;19;20139;-71
2023/12/30 08:19:11;;;;;;;0.55;0.45;;;11.30;99.90;;;;;;7392452;19;20134;-73
2023/12/30 08:21:37;;;;;;;0.37;0.37;;;11.40;99.90;;;;;;7390683;19;20168;-72
2023/12/30 08:24:06;;;;;;;0.60;0.43;;;11.40;99.90;;;;;;7391909;19;20146;-72
2023/12/30 08:26:32;;;;;;;0.57;0.57;;;11.40;99.90;;;;;;7394513;19;20675;-71
2023/12/30 08:28:57;;;;;;;0.40;0.40;;;11.40;99.90;;;;;;7391888;19;20155;-71
2023/12/30 08:31:23;;;;;;;0.60;0.60;;;11.40;99.90;;;;;;7392688;19;20579;-72
2023/12/30 08:33:51;;;;;;;0.30;0.30;;;11.40;99.90;;;;;;7391852;19;20893;-73
2023/12/30 08:36:16;;;;;;;0.90;0.73;;;11.40;99.90;;;;;;7395749;19;20158;-71
2023/12/30 08:38:42;;;;;;;0.40;0.40;;;11.50;99.90;;;;;;7391342;19;20138;-72
2023/12/30 08:41:14;;;;;;;0.70;0.60;;;11.40;99.90;;;;;;7391618;19;20149;-73
2023/12/30 08:43:41;;;;;;;0.45;0.40;;;11.40;99.90;;;;;;7392168;19;20138;-73
2023/12/30 08:46:08;;;;;;;0.30;0.30;;;11.50;99.90;;;;;;7396211;19;20166;-72
2023/12/30 08:48:33;;;;;;;0.50;0.50;;;11.60;99.90;;;;;;7392646;19;20141;-72
2023/12/30 08:50:59;;;;;;;0.50;0.50;;;11.60;99.90;;;;;;7393759;19;20218;-72
2023/12/30 08:53:25;;;;;;;0.40;0.40;;;11.70;99.90;;;;;;7391843;19;20156;-74
2023/12/30 08:55:52;;;;;;;2.22;0.95;;;11.70;99.90;;;;;;7392128;19;20131;-74
2023/12/30 08:58:18;;;;;;;0.80;0.50;;;11.80;99.90;;;;;;7392162;19;20550;-72
2023/12/30 09:00:44;;;;;;;1.35;1.05;;;11.70;99.90;;;;;;7393124;19;20144;-74
2023/12/30 09:03:10;;;;;;;0.40;0.40;;;11.80;99.90;;;;;;7389831;19;20473;-72
2023/12/30 09:05:36;;;;;;;0.50;0.50;;;11.80;99.90;;;;;;7388569;19;20214;-73
2023/12/30 09:08:04;;;;;;;0.80;0.80;;;11.90;99.90;;;;;;7389590;19;20162;-74
2023/12/30 09:10:31;;;;;;;0.53;0.50;;;11.90;99.90;;;;;;7392117;19;20138;-74
2023/12/30 09:12:58;;;;;;;0.90;0.53;;;11.80;99.90;;;;;;7392604;19;20134;-74
2023/12/30 09:15:24;;;;;;;0.40;0.40;;;11.90;99.90;;;;;;7391234;19;20153;-72
2023/12/30 09:17:49;;;;;;;1.58;0.50;;;11.90;99.90;;;;;;7391266;19;20142;-73
2023/12/30 09:20:15;;;;;;;0.50;0.50;;;11.90;99.90;;;;;;7391041;19;20138;-73
2023/12/30 09:22:41;;;;;;;0.80;0.63;;;11.80;99.90;;;;;;7389493;19;20139;-73
2023/12/30 09:25:07;;;;;;;0.63;0.50;;;11.80;99.90;;;;;;7390053;19;20194;-72
2023/12/30 09:27:33;;;;;;;0.55;0.52;;;11.80;99.90;;;;;;7388356;19;20170;-72
2023/12/30 09:29:58;;;;;;;0.63;0.40;;;11.80;99.90;;;;;;7388257;19;20142;-71
2023/12/30 09:32:24;;;;;;;0.60;0.47;;;11.90;99.90;;;;;;7388517;19;20901;-72
2023/12/30 09:34:50;;;;;;;0.20;0.20;;;11.90;99.90;;;;;;7390475;19;20138;-72
2023/12/30 09:37:17;;;;;;;0.30;0.30;;;11.90;99.90;;;;;;7389237;19;20156;-72
2023/12/30 09:39:43;;;;;;;0.30;0.30;;;11.70;99.90;;;;;;7391129;19;20214;-72
2023/12/30 09:42:09;;;;;;;0.30;0.30;;;11.60;99.90;;;;;;7389053;19;20135;-72
2023/12/30 09:44:35;;;;;;;0.50;0.30;;;11.70;99.90;;;;;;7388007;19;20149;-73
2023/12/30 09:47:07;;;;;;;0.17;0.17;;;11.80;99.90;;;;;;7391462;19;20134;-72
2023/12/30 09:49:35;;;;;;;0.50;0.50;;;11.90;99.90;;;;;;7388945;19;20489;-72
2023/12/30 09:52:03;;;;;;;0.40;0.40;;;11.80;99.90;;;;;;7389111;19;20587;-71
2023/12/30 09:54:29;;;;;;;0.30;0.30;;;11.60;99.90;;;;;;7389898;19;20141;-73
2023/12/30 09:56:56;;;;;;;0.95;0.35;;;11.60;99.90;;;;;;7390976;19;20138;-72
2023/12/30 09:59:26;;;;;;;0.30;0.30;;;11.50;99.90;;;;;;7389188;19;20134;-72
2023/12/30 10:01:54;;;;;;;0.30;0.30;;;11.60;99.90;;;;;;7389535;19;20137;-73
2023/12/30 10:04:20;;;;;;;0.35;0.35;;;11.60;99.90;;;;;;7388119;19;20182;-73
2023/12/30 10:06:47;;;;;;;0.40;0.40;;;11.70;99.90;;;;;;7387424;19;20509;-73
2023/12/30 10:09:14;;;;;;;0.20;0.20;;;11.50;99.90;;;;;;7387864;19;20146;-71
2023/12/30 10:11:42;;;;;;;1.23;0.80;;;11.50;99.90;;;;;;7386337;19;20153;-72
2023/12/30 10:14:08;;;;;;;1.45;0.80;;;11.60;99.90;;;;;;7391249;19;20454;-73
2023/12/30 10:16:35;;;;;;;1.55;0.77;;;11.50;99.90;;;;;;7387903;19;20202;-73
2023/12/30 10:19:01;;;;;;;0.35;0.35;;;11.50;99.90;;;;;;7386098;19;20482;-73
2023/12/30 10:21:28;;;;;;;1.63;0.30;;;11.70;99.90;;;;;;7388722;19;20213;-73
2023/12/30 10:23:54;;;;;;;0.70;0.47;;;11.80;99.90;;;;;;7387904;19;20139;-71
2023/12/30 10:26:21;;;;;;;0.30;0.30;;;11.90;99.90;;;;;;7388313;19;20166;-73
2023/12/30 10:28:47;;;;;;;0.30;0.28;;;12.00;99.90;;;;;;7388379;19;20154;-73
2023/12/30 10:31:16;;;;;;;0.50;0.43;;;11.90;99.90;;;;;;7389702;19;20151;-72
2023/12/30 10:33:42;;;;;;;1.80;0.40;;;11.80;99.90;;;;;;7390855;19;20706;-72
2023/12/30 10:36:10;;;;;;;0.40;0.40;;;12.00;99.90;;;;;;7391243;19;20162;-71
2023/12/30 10:38:36;;;;;;;0.25;0.25;;;12.00;99.90;;;;;;7390183;19;20194;-72
2023/12/30 10:41:02;;;;;;;0.65;0.40;;;12.10;99.90;;;;;;7391273;19;20151;-71
2023/12/30 10:43:27;;;;;;;0.25;0.25;;;12.20;99.90;;;;;;7391329;19;20584;-71
2023/12/30 10:46:01;;;;;;;0.35;0.35;;;11.80;99.90;;;;;;7397825;19;20138;-72
2023/12/30 10:48:32;;;;;;;0.40;0.40;;;11.70;99.90;;;;;;7395419;19;20142;-71
2023/12/30 10:50:59;;;;;;;0.13;0.13;;;11.80;99.90;;;;;;7396229;19;20243;-71
2023/12/30 10:53:44;;;;;;;0.30;0.28;;;11.90;99.90;;;;;;7395903;19;20152;-72
2023/12/30 10:56:11;;;;;;;0.70;0.40;;;12.10;99.90;;;;;;7397423;19;20584;-72
2023/12/30 10:58:40;;;;;;;0.30;0.30;;;12.20;99.90;;;;;;7393449;19;20157;-73
2023/12/30 11:01:06;;;;;;;0.65;0.45;;;12.10;99.90;;;;;;7393330;19;20257;-72
2023/12/30 11:03:33;;;;;;;0.20;0.20;;;12.20;99.90;;;;;;7395016;19;20161;-73
2023/12/30 11:06:18;;;;;;;0.30;0.30;;;12.30;99.90;;;;;;7393731;19;20155;-71
2023/12/30 11:08:44;;;;;;;0.20;0.20;;;12.40;99.90;;;;;;7392819;19;20190;-72
2023/12/30 11:11:16;;;;;;;0.32;0.30;;;12.20;99.90;;;;;;7392532;19;20155;-72
2023/12/30 11:13:44;;;;;;;0.90;0.47;;;12.00;99.90;;;;;;7394821;19;20146;-72
2023/12/30 11:16:13;;;;;;;0.28;0.28;;;12.20;99.90;;;;;;7394325;19;20218;-72
2023/12/30 11:18:51;;;;;;;0.22;0.22;;;12.20;99.90;;;;;;7394798;19;20210;-72
2023/12/30 11:21:40;;;;;;;0.25;0.25;;;12.20;99.90;;;;;;7392209;19;20130;-72
2023/12/30 11:24:10;;;;;;;0.20;0.20;;;12.30;99.90;;;;;;7394238;19;20138;-71
2023/12/30 11:26:40;;;;;;;0.40;0.30;;;12.60;99.90;;;;;;7394614;19;20134;-72
2023/12/30 11:29:11;;;;;;;0.38;0.38;;;12.70;99.90;;;;;;7391047;19;20150;-72
2023/12/30 11:31:41;;;;;;;2.50;1.85;;;12.80;99.90;;;;;;7393055;19;20257;-72
2023/12/30 11:34:06;;;;;;;3.67;2.08;;;12.80;99.90;;;;;;7395706;19;20138;-69
2023/12/30 11:36:32;;;;;;;0.90;0.30;;;12.80;99.90;;;;;;7394255;19;20149;-71
2023/12/30 11:38:59;;;;;;;0.50;0.50;;;13.10;99.90;;;;;;7395896;19;20139;-70
2023/12/30 11:41:27;;;;;;;0.30;0.30;;;12.90;99.90;;;;;;7395551;19;20641;-70
2023/12/30 11:44:02;;;;;;;0.30;0.30;;;12.90;99.90;;;;;;7393739;19;20603;-72
2023/12/30 11:46:28;;;;;;;0.35;0.35;;;13.00;99.90;;;;;;7396102;19;20173;-71
2023/12/30 11:48:56;;;;;;;0.57;0.35;;;12.90;99.90;;;;;;7395894;19;20135;-72
2023/12/30 11:51:27;;;;;;;0.50;0.40;;;13.10;99.90;;;;;;7396114;19;20139;-72
2023/12/30 11:53:54;;;;;;;0.47;0.40;;;13.30;99.90;;;;;;7393288;19;20138;-72
2023/12/30 11:56:21;;;;;;;0.93;0.38;;;13.40;99.90;;;;;;7392363;19;20156;-74
2023/12/30 11:58:49;;;;;;;0.20;0.20;;;13.50;99.90;;;;;;7388882;19;20616;-72
2023/12/30 12:01:15;;;;;;;0.25;0.25;;;13.50;99.90;;;;;;7390933;19;20239;-72
2023/12/30 12:03:41;;;;;;;0.40;0.40;;;13.60;99.90;;;;;;7387861;19;20366;-72
2023/12/30 12:06:11;;;;;;;0.20;0.20;;;13.50;99.90;;;;;;7392912;19;20154;-73
2023/12/30 12:08:37;;;;;;;0.40;0.32;;;13.20;99.90;;;;;;7393870;19;20149;-73
2023/12/30 12:11:04;;;;;;;0.50;0.30;;;12.90;99.90;;;;;;7396042;19;20138;-73
2023/12/30 12:13:30;;;;;;;0.20;0.20;;;12.80;99.90;;;;;;7393865;19;20143;-72
2023/12/30 12:15:56;;;;;;;0.40;0.35;;;12.80;99.90;;;;;;7394054;19;20147;-72
2023/12/30 12:18:23;;;;;;;0.20;0.20;;;12.90;99.90;;;;;;7393254;19;20576;-72
2023/12/30 12:20:50;;;;;;;0.40;0.40;;;12.90;99.90;;;;;;7393827;19;20134;-72
2023/12/30 12:23:16;;;;;;;2.13;0.40;;;12.90;99.90;;;;;;7391917;19;20138;-72
2023/12/30 12:25:45;;;;;;;0.20;0.20;;;13.00;99.90;;;;;;7394516;19;20250;-73
2023/12/30 12:28:13;;;;;;;0.30;0.30;;;12.70;99.90;;;;;;7393241;19;20139;-72
2023/12/30 12:30:39;;;;;;;0.30;0.30;;;12.50;99.90;;;;;;7394266;19;20134;-73
2023/12/30 12:33:06;;;;;;;0.60;0.60;;;12.50;99.90;;;;;;7393108;19;20516;-72
2023/12/30 12:35:32;;;;;;;0.40;0.32;;;12.80;99.90;;;;;;7392759;19;20147;-73
2023/12/30 12:37:59;;;;;;;0.30;0.30;;;12.90;99.90;;;;;;7391678;19;20142;-72
2023/12/30 12:40:25;;;;;;;0.30;0.30;;;13.10;99.90;;;;;;7390741;19;20139;-72
2023/12/30 12:42:51;;;;;;;0.35;0.35;;;13.10;99.90;;;;;;7393396;19;20135;-72
2023/12/30 12:45:17;;;;;;;0.30;0.30;;;13.50;99.90;;;;;;7391509;19;20138;-73